sensor_id;sensor_type;location;lat;lon;timestamp;temperature;humidity
32660;DHT22;19064;47.912;12.308;2023-03-23T00:00:30;9.60;99.90
32660;DHT22;19064;47.912;12.308;2023-03-23T00:02:59;9.60;99.90
32660;DHT22;19064;47.912;12.308;2023-03-23T00:05:28;9.50;99.90
32660;DHT22;19064;47.912;12.308;2023-03-23T00:07:56;9.50;99.90
32660;DHT22;19064;47.912;12.308;2023-03-23T00:10:34;9.40;99.90
32660;DHT22;19064;47.912;12.308;2023-03-23T00:13:02;9.40;99.90
32660;DHT22;19064;47.912;12.308;2023-03-23T00:15:31;9.40;99.90
32660;DHT22;19064;47.912;12.308;2023-03-23T00:17:59;9.50;99.90
32660;DHT22;19064;47.912;12.308;2023-03-23T00:20:31;9.50;99.90
32660;DHT22;19064;47.912;12.308;2023-03-23T00:23:07;9.50;99.90
32660;DHT22;19064;47.912;12.308;2023-03-23T00:25:36;9.40;99.90
32660;DHT22;19064;47.912;12.308;2023-03-23T00:28:04;9.40;99.90
32660;DHT22;19064;47.912;12.308;2023-03-23T00:30:34;9.40;99.90
32660;DHT22;19064;47.912;12.308;2023-03-23T00:33:02;9.50;99.90
32660;DHT22;19064;47.912;12.308;2023-03-23T00:35:30;9.50;99.90
32660;DHT22;19064;47.912;12.308;2023-03-23T00:37:58;9.70;99.90
32660;DHT22;19064;47.912;12.308;2023-03-23T00:40:27;9.70;99.90
32660;DHT22;19064;47.912;12.308;2023-03-23T00:42:59;9.70;99.90
32660;DHT22;19064;47.912;12.308;2023-03-23T00:45:30;9.70;99.90
32660;DHT22;19064;47.912;12.308;2023-03-23T00:48:03;9.70;99.90
32660;DHT22;19064;47.912;12.308;2023-03-23T00:50:32;9.60;99.90
32660;DHT22;19064;47.912;12.308;2023-03-23T00:53:03;9.60;99.90
32660;DHT22;19064;47.912;12.308;2023-03-23T00:55:32;9.60;99.90
32660;DHT22;19064;47.912;12.308;2023-03-23T00:58:02;9.60;99.90
32660;DHT22;19064;47.912;12.308;2023-03-23T01:00:29;9.60;99.90
32660;DHT22;19064;47.912;12.308;2023-03-23T01:02:57;9.60;99.90
32660;DHT22;19064;47.912;12.308;2023-03-23T01:05:25;9.60;99.90
32660;DHT22;19064;47.912;12.308;2023-03-23T01:07:59;9.60;99.90
32660;DHT22;19064;47.912;12.308;2023-03-23T01:10:27;9.60;99.90
32660;DHT22;19064;47.912;12.308;2023-03-23T01:12:59;9.70;99.90
32660;DHT22;19064;47.912;12.308;2023-03-23T01:15:29;9.70;99.90
32660;DHT22;19064;47.912;12.308;2023-03-23T01:17:57;9.70;99.90
32660;DHT22;19064;47.912;12.308;2023-03-23T01:20:26;9.70;99.90
32660;DHT22;19064;47.912;12.308;2023-03-23T01:22:55;9.60;99.90
32660;DHT22;19064;47.912;12.308;2023-03-23T01:25:28;9.60;99.90
32660;DHT22;19064;47.912;12.308;2023-03-23T01:27:56;9.60;99.90
32660;DHT22;19064;47.912;12.308;2023-03-23T01:30:25;9.50;99.90
32660;DHT22;19064;47.912;12.308;2023-03-23T01:32:55;9.50;99.90
32660;DHT22;19064;47.912;12.308;2023-03-23T01:35:23;9.50;99.90
32660;DHT22;19064;47.912;12.308;2023-03-23T01:37:51;9.60;99.90
32660;DHT22;19064;47.912;12.308;2023-03-23T01:40:20;9.60;99.90
32660;DHT22;19064;47.912;12.308;2023-03-23T01:42:48;9.70;99.90
32660;DHT22;19064;47.912;12.308;2023-03-23T01:45:26;9.70;99.90
32660;DHT22;19064;47.912;12.308;2023-03-23T01:48:09;9.70;99.90
32660;DHT22;19064;47.912;12.308;2023-03-23T01:50:46;9.70;99.90
32660;DHT22;19064;47.912;12.308;2023-03-23T01:53:17;9.70;99.90
32660;DHT22;19064;47.912;12.308;2023-03-23T01:55:49;9.40;99.90
32660;DHT22;19064;47.912;12.308;2023-03-23T01:58:22;9.10;99.90
32660;DHT22;19064;47.912;12.308;2023-03-23T02:00:57;8.90;99.90
32660;DHT22;19064;47.912;12.308;2023-03-23T02:03:42;8.80;99.90
32660;DHT22;19064;47.912;12.308;2023-03-23T02:06:12;8.70;99.90
32660;DHT22;19064;47.912;12.308;2023-03-23T02:08:41;8.60;99.90
32660;DHT22;19064;47.912;12.308;2023-03-23T02:11:14;8.60;99.90
32660;DHT22;19064;47.912;12.308;2023-03-23T02:13:43;8.60;99.90
32660;DHT22;19064;47.912;12.308;2023-03-23T02:16:17;8.60;99.90
32660;DHT22;19064;47.912;12.308;2023-03-23T02:18:58;8.30;99.90
32660;DHT22;19064;47.912;12.308;2023-03-23T02:22:10;8.10;99.90
32660;DHT22;19064;47.912;12.308;2023-03-23T02:28:20;8.20;99.90
32660;DHT22;19064;47.912;12.308;2023-03-23T02:31:21;8.30;99.90
32660;DHT22;19064;47.912;12.308;2023-03-23T02:34:02;8.50;99.90
32660;DHT22;19064;47.912;12.308;2023-03-23T02:36:35;8.40;99.90
32660;DHT22;19064;47.912;12.308;2023-03-23T02:39:09;8.30;99.90
32660;DHT22;19064;47.912;12.308;2023-03-23T02:41:40;8.30;99.90
32660;DHT22;19064;47.912;12.308;2023-03-23T02:44:10;8.20;99.90
32660;DHT22;19064;47.912;12.308;2023-03-23T02:46:41;8.20;99.90
32660;DHT22;19064;47.912;12.308;2023-03-23T02:49:14;8.20;99.90
32660;DHT22;19064;47.912;12.308;2023-03-23T02:51:44;8.30;99.90
32660;DHT22;19064;47.912;12.308;2023-03-23T02:54:15;8.30;99.90
32660;DHT22;19064;47.912;12.308;2023-03-23T02:56:44;8.20;99.90
32660;DHT22;19064;47.912;12.308;2023-03-23T02:59:12;8.20;99.90
32660;DHT22;19064;47.912;12.308;2023-03-23T03:02:03;8.20;99.90
32660;DHT22;19064;47.912;12.308;2023-03-23T03:04:38;8.20;99.90
32660;DHT22;19064;47.912;12.308;2023-03-23T03:07:29;8.10;99.90
32660;DHT22;19064;47.912;12.308;2023-03-23T03:10:01;8.10;99.90
32660;DHT22;19064;47.912;12.308;2023-03-23T03:12:36;8.10;99.90
32660;DHT22;19064;47.912;12.308;2023-03-23T03:15:13;8.10;99.90
32660;DHT22;19064;47.912;12.308;2023-03-23T03:17:47;8.10;99.90
32660;DHT22;19064;47.912;12.308;2023-03-23T03:20:21;8.20;99.90
32660;DHT22;19064;47.912;12.308;2023-03-23T03:22:50;8.20;99.90
32660;DHT22;19064;47.912;12.308;2023-03-23T03:25:19;8.20;99.90
32660;DHT22;19064;47.912;12.308;2023-03-23T03:27:49;8.20;99.90
32660;DHT22;19064;47.912;12.308;2023-03-23T03:30:22;8.30;99.90
32660;DHT22;19064;47.912;12.308;2023-03-23T03:32:54;8.40;99.90
32660;DHT22;19064;47.912;12.308;2023-03-23T03:35:26;8.40;99.90
32660;DHT22;19064;47.912;12.308;2023-03-23T03:37:55;8.40;99.90
32660;DHT22;19064;47.912;12.308;2023-03-23T03:40:24;8.30;99.90
32660;DHT22;19064;47.912;12.308;2023-03-23T03:42:51;8.30;99.90
32660;DHT22;19064;47.912;12.308;2023-03-23T03:45:20;8.40;99.90
32660;DHT22;19064;47.912;12.308;2023-03-23T03:47:48;8.30;99.90
32660;DHT22;19064;47.912;12.308;2023-03-23T03:50:16;8.10;99.90
32660;DHT22;19064;47.912;12.308;2023-03-23T03:52:45;8.00;99.90
32660;DHT22;19064;47.912;12.308;2023-03-23T03:55:13;7.90;99.90
32660;DHT22;19064;47.912;12.308;2023-03-23T03:57:41;7.90;99.90
32660;DHT22;19064;47.912;12.308;2023-03-23T04:00:13;8.00;99.90
32660;DHT22;19064;47.912;12.308;2023-03-23T04:02:42;8.10;99.90
32660;DHT22;19064;47.912;12.308;2023-03-23T04:05:14;8.20;99.90
32660;DHT22;19064;47.912;12.308;2023-03-23T04:07:42;8.10;99.90
32660;DHT22;19064;47.912;12.308;2023-03-23T04:10:11;8.10;99.90
32660;DHT22;19064;47.912;12.308;2023-03-23T04:12:39;8.10;99.90
32660;DHT22;19064;47.912;12.308;2023-03-23T04:15:08;8.10;99.90
32660;DHT22;19064;47.912;12.308;2023-03-23T04:17:37;8.10;99.90
32660;DHT22;19064;47.912;12.308;2023-03-23T04:20:08;8.30;99.90
32660;DHT22;19064;47.912;12.308;2023-03-23T04:22:43;8.30;99.90
32660;DHT22;19064;47.912;12.308;2023-03-23T04:25:18;8.40;99.90
32660;DHT22;19064;47.912;12.308;2023-03-23T04:27:47;8.20;99.90
32660;DHT22;19064;47.912;12.308;2023-03-23T04:30:20;8.10;99.90
32660;DHT22;19064;47.912;12.308;2023-03-23T04:32:49;8.10;99.90
32660;DHT22;19064;47.912;12.308;2023-03-23T04:35:19;7.90;99.90
32660;DHT22;19064;47.912;12.308;2023-03-23T04:37:48;7.80;99.90
32660;DHT22;19064;47.912;12.308;2023-03-23T04:40:18;7.70;99.90
32660;DHT22;19064;47.912;12.308;2023-03-23T04:42:46;7.70;99.90
32660;DHT22;19064;47.912;12.308;2023-03-23T04:45:15;7.60;99.90
32660;DHT22;19064;47.912;12.308;2023-03-23T04:47:48;7.60;99.90
32660;DHT22;19064;47.912;12.308;2023-03-23T04:50:21;7.60;99.90
32660;DHT22;19064;47.912;12.308;2023-03-23T04:52:50;7.50;99.90
32660;DHT22;19064;47.912;12.308;2023-03-23T04:55:24;7.60;99.90
32660;DHT22;19064;47.912;12.308;2023-03-23T04:57:52;7.80;99.90
32660;DHT22;19064;47.912;12.308;2023-03-23T05:00:21;7.70;99.90
32660;DHT22;19064;47.912;12.308;2023-03-23T05:02:49;7.80;99.90
32660;DHT22;19064;47.912;12.308;2023-03-23T05:05:19;7.90;99.90
32660;DHT22;19064;47.912;12.308;2023-03-23T05:07:48;7.90;99.90
32660;DHT22;19064;47.912;12.308;2023-03-23T05:10:16;7.90;99.90
32660;DHT22;19064;47.912;12.308;2023-03-23T05:12:46;7.90;99.90
32660;DHT22;19064;47.912;12.308;2023-03-23T05:15:15;7.90;99.90
32660;DHT22;19064;47.912;12.308;2023-03-23T05:17:44;7.90;99.90
32660;DHT22;19064;47.912;12.308;2023-03-23T05:20:13;7.80;99.90
32660;DHT22;19064;47.912;12.308;2023-03-23T05:22:48;7.60;99.90
32660;DHT22;19064;47.912;12.308;2023-03-23T05:25:17;7.60;99.90
32660;DHT22;19064;47.912;12.308;2023-03-23T05:27:51;7.90;99.90
32660;DHT22;19064;47.912;12.308;2023-03-23T05:30:22;8.10;99.90
32660;DHT22;19064;47.912;12.308;2023-03-23T05:32:49;8.30;99.90
32660;DHT22;19064;47.912;12.308;2023-03-23T05:35:18;8.20;99.90
32660;DHT22;19064;47.912;12.308;2023-03-23T05:37:46;8.30;99.90
32660;DHT22;19064;47.912;12.308;2023-03-23T05:40:14;8.40;99.90
32660;DHT22;19064;47.912;12.308;2023-03-23T05:42:42;8.50;99.90
32660;DHT22;19064;47.912;12.308;2023-03-23T05:45:13;8.60;99.90
32660;DHT22;19064;47.912;12.308;2023-03-23T05:47:46;8.60;99.90
32660;DHT22;19064;47.912;12.308;2023-03-23T05:50:14;8.80;99.90
32660;DHT22;19064;47.912;12.308;2023-03-23T05:52:43;8.80;99.90
32660;DHT22;19064;47.912;12.308;2023-03-23T05:55:11;8.80;99.90
32660;DHT22;19064;47.912;12.308;2023-03-23T05:57:39;8.80;99.90
32660;DHT22;19064;47.912;12.308;2023-03-23T06:00:09;8.90;99.90
32660;DHT22;19064;47.912;12.308;2023-03-23T06:02:49;8.90;99.90
32660;DHT22;19064;47.912;12.308;2023-03-23T06:05:17;8.80;99.90
32660;DHT22;19064;47.912;12.308;2023-03-23T06:07:46;8.70;99.90
32660;DHT22;19064;47.912;12.308;2023-03-23T06:10:14;8.60;99.90
32660;DHT22;19064;47.912;12.308;2023-03-23T06:12:43;8.50;99.90
32660;DHT22;19064;47.912;12.308;2023-03-23T06:15:12;8.40;99.90
32660;DHT22;19064;47.912;12.308;2023-03-23T06:17:42;8.30;99.90
32660;DHT22;19064;47.912;12.308;2023-03-23T06:20:12;8.40;99.90
32660;DHT22;19064;47.912;12.308;2023-03-23T06:22:47;8.40;99.90
32660;DHT22;19064;47.912;12.308;2023-03-23T06:25:15;8.50;99.90
32660;DHT22;19064;47.912;12.308;2023-03-23T06:27:43;8.60;99.90
32660;DHT22;19064;47.912;12.308;2023-03-23T06:30:13;8.70;99.90
32660;DHT22;19064;47.912;12.308;2023-03-23T06:32:42;8.60;99.90
32660;DHT22;19064;47.912;12.308;2023-03-23T06:35:18;8.70;99.90
32660;DHT22;19064;47.912;12.308;2023-03-23T06:37:49;8.80;99.90
32660;DHT22;19064;47.912;12.308;2023-03-23T06:40:18;8.90;99.90
32660;DHT22;19064;47.912;12.308;2023-03-23T06:42:46;9.00;99.90
32660;DHT22;19064;47.912;12.308;2023-03-23T06:45:14;9.00;99.90
32660;DHT22;19064;47.912;12.308;2023-03-23T06:47:42;8.90;99.90
32660;DHT22;19064;47.912;12.308;2023-03-23T06:50:16;8.90;99.90
32660;DHT22;19064;47.912;12.308;2023-03-23T06:52:45;8.90;99.90
32660;DHT22;19064;47.912;12.308;2023-03-23T06:55:14;8.90;99.90
32660;DHT22;19064;47.912;12.308;2023-03-23T06:57:44;9.00;99.90
32660;DHT22;19064;47.912;12.308;2023-03-23T07:00:13;9.00;99.90
32660;DHT22;19064;47.912;12.308;2023-03-23T07:02:42;9.00;99.90
32660;DHT22;19064;47.912;12.308;2023-03-23T07:05:11;9.00;99.90
32660;DHT22;19064;47.912;12.308;2023-03-23T07:07:41;8.90;99.90
32660;DHT22;19064;47.912;12.308;2023-03-23T07:10:09;8.90;99.90
32660;DHT22;19064;47.912;12.308;2023-03-23T07:12:37;9.00;99.90
32660;DHT22;19064;47.912;12.308;2023-03-23T07:15:07;9.10;99.90
32660;DHT22;19064;47.912;12.308;2023-03-23T07:17:36;9.10;99.90
32660;DHT22;19064;47.912;12.308;2023-03-23T07:20:06;9.10;99.90
32660;DHT22;19064;47.912;12.308;2023-03-23T07:22:35;9.10;99.90
32660;DHT22;19064;47.912;12.308;2023-03-23T07:25:05;9.20;99.90
32660;DHT22;19064;47.912;12.308;2023-03-23T07:27:34;9.40;99.90
32660;DHT22;19064;47.912;12.308;2023-03-23T07:30:02;9.50;99.90
32660;DHT22;19064;47.912;12.308;2023-03-23T07:32:30;9.60;99.90
32660;DHT22;19064;47.912;12.308;2023-03-23T07:34:58;9.70;99.90
32660;DHT22;19064;47.912;12.308;2023-03-23T07:37:26;9.70;99.90
32660;DHT22;19064;47.912;12.308;2023-03-23T07:39:53;9.80;99.90
32660;DHT22;19064;47.912;12.308;2023-03-23T07:42:23;9.90;99.90
32660;DHT22;19064;47.912;12.308;2023-03-23T07:44:51;10.00;99.90
32660;DHT22;19064;47.912;12.308;2023-03-23T07:47:19;10.10;99.90
32660;DHT22;19064;47.912;12.308;2023-03-23T07:49:46;10.20;99.90
32660;DHT22;19064;47.912;12.308;2023-03-23T07:52:13;10.30;99.90
32660;DHT22;19064;47.912;12.308;2023-03-23T07:54:41;10.40;99.90
32660;DHT22;19064;47.912;12.308;2023-03-23T07:57:09;10.50;99.90
32660;DHT22;19064;47.912;12.308;2023-03-23T07:59:38;10.70;99.90
32660;DHT22;19064;47.912;12.308;2023-03-23T08:02:08;10.90;99.90
32660;DHT22;19064;47.912;12.308;2023-03-23T08:04:36;11.10;99.90
32660;DHT22;19064;47.912;12.308;2023-03-23T08:07:06;11.20;99.90
32660;DHT22;19064;47.912;12.308;2023-03-23T08:09:34;11.30;99.90
32660;DHT22;19064;47.912;12.308;2023-03-23T08:12:03;11.50;99.90
32660;DHT22;19064;47.912;12.308;2023-03-23T08:14:31;11.50;99.90
32660;DHT22;19064;47.912;12.308;2023-03-23T08:17:00;11.70;99.90
32660;DHT22;19064;47.912;12.308;2023-03-23T08:19:27;11.80;99.90
32660;DHT22;19064;47.912;12.308;2023-03-23T08:21:54;11.90;99.90
32660;DHT22;19064;47.912;12.308;2023-03-23T08:24:20;12.30;99.90
32660;DHT22;19064;47.912;12.308;2023-03-23T08:26:47;12.70;99.90
32660;DHT22;19064;47.912;12.308;2023-03-23T08:29:17;13.10;99.90
32660;DHT22;19064;47.912;12.308;2023-03-23T08:31:45;13.50;99.90
32660;DHT22;19064;47.912;12.308;2023-03-23T08:34:14;13.90;99.90
32660;DHT22;19064;47.912;12.308;2023-03-23T08:36:43;14.10;99.90
32660;DHT22;19064;47.912;12.308;2023-03-23T08:39:13;14.10;99.90
32660;DHT22;19064;47.912;12.308;2023-03-23T08:41:44;14.20;99.90
32660;DHT22;19064;47.912;12.308;2023-03-23T08:44:12;14.30;99.90
32660;DHT22;19064;47.912;12.308;2023-03-23T08:46:40;14.40;99.90
32660;DHT22;19064;47.912;12.308;2023-03-23T08:49:07;14.40;99.90
32660;DHT22;19064;47.912;12.308;2023-03-23T08:51:35;14.40;99.90
32660;DHT22;19064;47.912;12.308;2023-03-23T08:54:02;14.40;99.90
32660;DHT22;19064;47.912;12.308;2023-03-23T08:56:30;14.50;99.90
32660;DHT22;19064;47.912;12.308;2023-03-23T08:58:58;14.50;99.90
32660;DHT22;19064;47.912;12.308;2023-03-23T09:01:27;14.50;99.90
32660;DHT22;19064;47.912;12.308;2023-03-23T09:03:55;14.50;99.90
32660;DHT22;19064;47.912;12.308;2023-03-23T09:06:22;14.50;99.90
32660;DHT22;19064;47.912;12.308;2023-03-23T09:08:52;14.50;99.90
32660;DHT22;19064;47.912;12.308;2023-03-23T09:11:22;14.60;99.90
32660;DHT22;19064;47.912;12.308;2023-03-23T09:13:50;14.60;99.90
32660;DHT22;19064;47.912;12.308;2023-03-23T09:16:17;14.60;99.90
32660;DHT22;19064;47.912;12.308;2023-03-23T09:18:47;14.70;99.90
32660;DHT22;19064;47.912;12.308;2023-03-23T09:21:15;14.80;99.90
32660;DHT22;19064;47.912;12.308;2023-03-23T09:23:42;14.80;99.90
32660;DHT22;19064;47.912;12.308;2023-03-23T09:26:11;14.90;99.90
32660;DHT22;19064;47.912;12.308;2023-03-23T09:28:37;14.90;99.90
32660;DHT22;19064;47.912;12.308;2023-03-23T09:31:04;14.90;99.90
32660;DHT22;19064;47.912;12.308;2023-03-23T09:33:32;14.90;99.90
32660;DHT22;19064;47.912;12.308;2023-03-23T09:36:00;15.00;99.90
32660;DHT22;19064;47.912;12.308;2023-03-23T09:38:31;15.10;99.90
32660;DHT22;19064;47.912;12.308;2023-03-23T09:41:10;15.20;99.90
32660;DHT22;19064;47.912;12.308;2023-03-23T09:43:59;15.40;99.90
32660;DHT22;19064;47.912;12.308;2023-03-23T09:46:38;15.60;99.90
32660;DHT22;19064;47.912;12.308;2023-03-23T09:49:10;15.80;99.90
32660;DHT22;19064;47.912;12.308;2023-03-23T09:51:43;16.00;99.90
32660;DHT22;19064;47.912;12.308;2023-03-23T09:54:17;16.20;99.90
32660;DHT22;19064;47.912;12.308;2023-03-23T09:56:46;16.50;99.90
32660;DHT22;19064;47.912;12.308;2023-03-23T09:59:20;16.60;99.90
32660;DHT22;19064;47.912;12.308;2023-03-23T10:01:52;16.80;99.90
32660;DHT22;19064;47.912;12.308;2023-03-23T10:04:34;17.00;99.90
32660;DHT22;19064;47.912;12.308;2023-03-23T10:07:10;17.10;99.90
32660;DHT22;19064;47.912;12.308;2023-03-23T10:09:38;17.10;99.90
32660;DHT22;19064;47.912;12.308;2023-03-23T10:12:14;17.10;99.90
32660;DHT22;19064;47.912;12.308;2023-03-23T10:14:57;17.10;99.90
32660;DHT22;19064;47.912;12.308;2023-03-23T10:17:30;17.10;99.90
32660;DHT22;19064;47.912;12.308;2023-03-23T10:20:10;17.10;99.90
32660;DHT22;19064;47.912;12.308;2023-03-23T10:22:52;17.10;99.90
32660;DHT22;19064;47.912;12.308;2023-03-23T10:25:24;17.20;99.90
32660;DHT22;19064;47.912;12.308;2023-03-23T10:27:59;17.20;99.90
32660;DHT22;19064;47.912;12.308;2023-03-23T10:30:35;17.30;99.90
32660;DHT22;19064;47.912;12.308;2023-03-23T10:33:08;17.30;99.90
32660;DHT22;19064;47.912;12.308;2023-03-23T10:35:44;17.30;99.90
32660;DHT22;19064;47.912;12.308;2023-03-23T10:38:15;17.30;99.90
32660;DHT22;19064;47.912;12.308;2023-03-23T10:40:49;17.30;99.90
32660;DHT22;19064;47.912;12.308;2023-03-23T10:43:17;17.30;99.90
32660;DHT22;19064;47.912;12.308;2023-03-23T10:45:52;17.40;99.90
32660;DHT22;19064;47.912;12.308;2023-03-23T10:48:25;17.40;99.90
32660;DHT22;19064;47.912;12.308;2023-03-23T10:50:56;17.40;99.90
32660;DHT22;19064;47.912;12.308;2023-03-23T10:53:28;17.40;99.90
32660;DHT22;19064;47.912;12.308;2023-03-23T10:55:59;17.40;99.90
32660;DHT22;19064;47.912;12.308;2023-03-23T10:58:29;17.40;99.90
32660;DHT22;19064;47.912;12.308;2023-03-23T11:00:59;17.40;99.90
32660;DHT22;19064;47.912;12.308;2023-03-23T11:03:41;17.40;99.90
32660;DHT22;19064;47.912;12.308;2023-03-23T11:06:12;17.40;99.90
32660;DHT22;19064;47.912;12.308;2023-03-23T11:08:52;17.50;99.90
32660;DHT22;19064;47.912;12.308;2023-03-23T11:11:25;17.50;99.90
32660;DHT22;19064;47.912;12.308;2023-03-23T11:13:57;17.40;99.90
32660;DHT22;19064;47.912;12.308;2023-03-23T11:16:29;17.50;99.90
32660;DHT22;19064;47.912;12.308;2023-03-23T11:18:58;17.50;99.90
32660;DHT22;19064;47.912;12.308;2023-03-23T11:21:27;17.50;99.90
32660;DHT22;19064;47.912;12.308;2023-03-23T11:23:59;17.60;99.90
32660;DHT22;19064;47.912;12.308;2023-03-23T11:26:29;17.60;99.90
32660;DHT22;19064;47.912;12.308;2023-03-23T11:28:58;17.50;99.90
32660;DHT22;19064;47.912;12.308;2023-03-23T11:31:31;17.50;99.90
32660;DHT22;19064;47.912;12.308;2023-03-23T11:34:02;17.40;99.90
32660;DHT22;19064;47.912;12.308;2023-03-23T11:36:36;17.30;99.90
32660;DHT22;19064;47.912;12.308;2023-03-23T11:39:20;17.30;99.90
32660;DHT22;19064;47.912;12.308;2023-03-23T11:41:48;17.20;99.90
32660;DHT22;19064;47.912;12.308;2023-03-23T11:44:17;17.10;99.90
32660;DHT22;19064;47.912;12.308;2023-03-23T11:46:59;17.00;99.90
32660;DHT22;19064;47.912;12.308;2023-03-23T11:49:37;17.00;99.90
32660;DHT22;19064;47.912;12.308;2023-03-23T11:52:22;16.80;99.90
32660;DHT22;19064;47.912;12.308;2023-03-23T11:54:59;16.60;99.90
32660;DHT22;19064;47.912;12.308;2023-03-23T11:57:33;16.60;99.90
32660;DHT22;19064;47.912;12.308;2023-03-23T12:00:01;16.60;99.90
32660;DHT22;19064;47.912;12.308;2023-03-23T12:02:42;16.60;99.90
32660;DHT22;19064;47.912;12.308;2023-03-23T12:08:35;16.60;99.90
32660;DHT22;19064;47.912;12.308;2023-03-23T12:11:20;16.60;99.90
32660;DHT22;19064;47.912;12.308;2023-03-23T12:14:09;16.70;99.90
32660;DHT22;19064;47.912;12.308;2023-03-23T12:16:58;16.70;99.90
32660;DHT22;19064;47.912;12.308;2023-03-23T12:19:37;16.80;99.90
32660;DHT22;19064;47.912;12.308;2023-03-23T12:22:12;16.80;99.90
32660;DHT22;19064;47.912;12.308;2023-03-23T12:24:59;16.80;99.90
32660;DHT22;19064;47.912;12.308;2023-03-23T12:27:37;16.90;99.90
32660;DHT22;19064;47.912;12.308;2023-03-23T12:33:17;17.30;99.90
32660;DHT22;19064;47.912;12.308;2023-03-23T12:36:05;17.30;99.90
32660;DHT22;19064;47.912;12.308;2023-03-23T12:39:11;17.50;99.90
32660;DHT22;19064;47.912;12.308;2023-03-23T12:41:47;17.60;99.90
32660;DHT22;19064;47.912;12.308;2023-03-23T12:44:21;17.70;99.90
32660;DHT22;19064;47.912;12.308;2023-03-23T12:47:03;17.80;99.90
32660;DHT22;19064;47.912;12.308;2023-03-23T12:49:36;17.80;99.90
32660;DHT22;19064;47.912;12.308;2023-03-23T12:52:13;17.90;99.90
32660;DHT22;19064;47.912;12.308;2023-03-23T12:54:48;18.00;99.90
32660;DHT22;19064;47.912;12.308;2023-03-23T12:57:30;18.30;99.90
32660;DHT22;19064;47.912;12.308;2023-03-23T13:00:06;18.50;99.90
32660;DHT22;19064;47.912;12.308;2023-03-23T13:02:42;18.50;99.90
32660;DHT22;19064;47.912;12.308;2023-03-23T13:05:36;18.60;99.90
32660;DHT22;19064;47.912;12.308;2023-03-23T13:08:18;18.60;99.70
32660;DHT22;19064;47.912;12.308;2023-03-23T13:11:08;18.50;99.50
32660;DHT22;19064;47.912;12.308;2023-03-23T13:13:51;18.50;99.90
32660;DHT22;19064;47.912;12.308;2023-03-23T13:16:29;18.50;99.90
32660;DHT22;19064;47.912;12.308;2023-03-23T13:19:08;18.40;99.90
32660;DHT22;19064;47.912;12.308;2023-03-23T13:21:44;18.40;99.90
32660;DHT22;19064;47.912;12.308;2023-03-23T13:24:21;18.40;99.90
32660;DHT22;19064;47.912;12.308;2023-03-23T13:26:53;18.30;99.90
32660;DHT22;19064;47.912;12.308;2023-03-23T13:29:23;18.30;99.90
32660;DHT22;19064;47.912;12.308;2023-03-23T13:32:05;18.30;99.90
32660;DHT22;19064;47.912;12.308;2023-03-23T13:34:36;18.30;99.90
32660;DHT22;19064;47.912;12.308;2023-03-23T13:37:11;18.40;99.90
32660;DHT22;19064;47.912;12.308;2023-03-23T13:39:52;18.40;99.90
32660;DHT22;19064;47.912;12.308;2023-03-23T13:42:24;18.40;99.90
32660;DHT22;19064;47.912;12.308;2023-03-23T13:45:23;18.40;99.90
32660;DHT22;19064;47.912;12.308;2023-03-23T13:48:17;18.40;99.90
32660;DHT22;19064;47.912;12.308;2023-03-23T13:50:50;18.40;99.90
32660;DHT22;19064;47.912;12.308;2023-03-23T13:53:27;18.40;99.90
32660;DHT22;19064;47.912;12.308;2023-03-23T13:56:21;18.30;99.90
32660;DHT22;19064;47.912;12.308;2023-03-23T13:59:06;18.20;99.90
32660;DHT22;19064;47.912;12.308;2023-03-23T14:01:37;18.10;99.90
32660;DHT22;19064;47.912;12.308;2023-03-23T14:04:09;18.10;99.90
32660;DHT22;19064;47.912;12.308;2023-03-23T14:06:38;18.00;99.90
32660;DHT22;19064;47.912;12.308;2023-03-23T14:09:10;18.10;99.90
32660;DHT22;19064;47.912;12.308;2023-03-23T14:11:49;18.10;99.90
32660;DHT22;19064;47.912;12.308;2023-03-23T14:14:25;18.10;99.90
32660;DHT22;19064;47.912;12.308;2023-03-23T14:17:06;18.10;99.90
32660;DHT22;19064;47.912;12.308;2023-03-23T14:19:38;18.20;99.90
32660;DHT22;19064;47.912;12.308;2023-03-23T14:22:18;18.10;99.90
32660;DHT22;19064;47.912;12.308;2023-03-23T14:24:45;18.00;99.90
32660;DHT22;19064;47.912;12.308;2023-03-23T14:27:18;18.10;99.90
32660;DHT22;19064;47.912;12.308;2023-03-23T14:29:57;18.10;99.90
32660;DHT22;19064;47.912;12.308;2023-03-23T14:32:30;18.10;99.90
32660;DHT22;19064;47.912;12.308;2023-03-23T14:35:04;18.20;99.90
32660;DHT22;19064;47.912;12.308;2023-03-23T14:37:33;18.20;99.90
32660;DHT22;19064;47.912;12.308;2023-03-23T14:40:01;18.20;99.90
32660;DHT22;19064;47.912;12.308;2023-03-23T14:42:35;18.30;99.90
32660;DHT22;19064;47.912;12.308;2023-03-23T14:45:05;18.40;99.90
32660;DHT22;19064;47.912;12.308;2023-03-23T14:47:35;18.40;99.90
32660;DHT22;19064;47.912;12.308;2023-03-23T14:50:18;18.40;99.90
32660;DHT22;19064;47.912;12.308;2023-03-23T14:52:49;18.40;99.90
32660;DHT22;19064;47.912;12.308;2023-03-23T14:55:18;18.30;99.90
32660;DHT22;19064;47.912;12.308;2023-03-23T14:57:47;18.30;99.90
32660;DHT22;19064;47.912;12.308;2023-03-23T15:00:20;18.30;99.90
32660;DHT22;19064;47.912;12.308;2023-03-23T15:02:51;18.30;99.90
32660;DHT22;19064;47.912;12.308;2023-03-23T15:05:23;18.20;99.80
32660;DHT22;19064;47.912;12.308;2023-03-23T15:07:59;18.10;99.70
32660;DHT22;19064;47.912;12.308;2023-03-23T15:10:28;18.10;99.90
32660;DHT22;19064;47.912;12.308;2023-03-23T15:12:57;18.00;99.60
32660;DHT22;19064;47.912;12.308;2023-03-23T15:15:28;18.00;99.90
32660;DHT22;19064;47.912;12.308;2023-03-23T15:17:57;18.00;99.90
32660;DHT22;19064;47.912;12.308;2023-03-23T15:20:27;18.00;99.90
32660;DHT22;19064;47.912;12.308;2023-03-23T15:22:55;18.00;99.90
32660;DHT22;19064;47.912;12.308;2023-03-23T15:25:29;17.90;99.40
32660;DHT22;19064;47.912;12.308;2023-03-23T15:28:06;17.90;99.30
32660;DHT22;19064;47.912;12.308;2023-03-23T15:30:36;17.80;99.20
32660;DHT22;19064;47.912;12.308;2023-03-23T15:33:13;17.70;99.40
32660;DHT22;19064;47.912;12.308;2023-03-23T15:35:46;17.70;98.60
32660;DHT22;19064;47.912;12.308;2023-03-23T15:38:19;17.60;98.20
32660;DHT22;19064;47.912;12.308;2023-03-23T15:40:50;17.50;98.60
32660;DHT22;19064;47.912;12.308;2023-03-23T15:43:21;17.50;99.20
32660;DHT22;19064;47.912;12.308;2023-03-23T15:45:56;17.50;99.00
32660;DHT22;19064;47.912;12.308;2023-03-23T15:48:27;17.50;98.40
32660;DHT22;19064;47.912;12.308;2023-03-23T15:50:55;17.40;99.20
32660;DHT22;19064;47.912;12.308;2023-03-23T15:53:29;17.40;98.50
32660;DHT22;19064;47.912;12.308;2023-03-23T15:55:59;17.30;98.90
32660;DHT22;19064;47.912;12.308;2023-03-23T15:58:34;17.30;99.00
32660;DHT22;19064;47.912;12.308;2023-03-23T16:01:05;17.30;99.00
32660;DHT22;19064;47.912;12.308;2023-03-23T16:03:37;17.30;99.00